sensor_id;sensor_type;location;lat;lon;timestamp;P1;durP1;ratioP1;P2;durP2;ratioP2
23078;SDS011;11707;50.830;4.364;2022-11-23T00:00:24;11.20;;;2.63;;
23078;SDS011;11707;50.830;4.364;2022-11-23T00:02:54;11.30;;;1.98;;
23078;SDS011;11707;50.830;4.364;2022-11-23T00:05:20;12.40;;;2.38;;
23078;SDS011;11707;50.830;4.364;2022-11-23T00:07:46;11.40;;;1.85;;
23078;SDS011;11707;50.830;4.364;2022-11-23T00:10:12;8.75;;;2.33;;
23078;SDS011;11707;50.830;4.364;2022-11-23T00:12:38;11.93;;;2.72;;
23078;SDS011;11707;50.830;4.364;2022-11-23T00:15:05;12.60;;;3.33;;
23078;SDS011;11707;50.830;4.364;2022-11-23T00:17:31;15.43;;;2.97;;
23078;SDS011;11707;50.830;4.364;2022-11-23T00:19:57;11.95;;;2.45;;
23078;SDS011;11707;50.830;4.364;2022-11-23T00:22:23;17.95;;;2.60;;
23078;SDS011;11707;50.830;4.364;2022-11-23T00:24:49;12.68;;;2.10;;
23078;SDS011;11707;50.830;4.364;2022-11-23T00:27:15;15.07;;;2.22;;
23078;SDS011;11707;50.830;4.364;2022-11-23T00:29:41;7.82;;;2.15;;
23078;SDS011;11707;50.830;4.364;2022-11-23T00:32:06;16.80;;;3.30;;
23078;SDS011;11707;50.830;4.364;2022-11-23T00:34:32;15.63;;;2.40;;
23078;SDS011;11707;50.830;4.364;2022-11-23T00:36:58;7.63;;;2.05;;
23078;SDS011;11707;50.830;4.364;2022-11-23T00:39:23;15.93;;;2.60;;
23078;SDS011;11707;50.830;4.364;2022-11-23T00:41:49;12.07;;;2.03;;
23078;SDS011;11707;50.830;4.364;2022-11-23T00:44:15;10.93;;;2.05;;
23078;SDS011;11707;50.830;4.364;2022-11-23T00:46:40;16.50;;;2.00;;
23078;SDS011;11707;50.830;4.364;2022-11-23T00:49:06;11.25;;;2.42;;
23078;SDS011;11707;50.830;4.364;2022-11-23T00:51:33;10.80;;;2.47;;
23078;SDS011;11707;50.830;4.364;2022-11-23T00:54:00;16.88;;;2.50;;
23078;SDS011;11707;50.830;4.364;2022-11-23T00:56:28;13.13;;;2.60;;
23078;SDS011;11707;50.830;4.364;2022-11-23T00:58:55;16.13;;;2.88;;
23078;SDS011;11707;50.830;4.364;2022-11-23T01:01:22;13.25;;;2.30;;
23078;SDS011;11707;50.830;4.364;2022-11-23T01:03:53;17.02;;;3.17;;
23078;SDS011;11707;50.830;4.364;2022-11-23T01:06:21;7.88;;;1.70;;
23078;SDS011;11707;50.830;4.364;2022-11-23T01:08:49;10.10;;;2.28;;
23078;SDS011;11707;50.830;4.364;2022-11-23T01:11:16;11.23;;;2.15;;
23078;SDS011;11707;50.830;4.364;2022-11-23T01:13:42;10.55;;;2.13;;
23078;SDS011;11707;50.830;4.364;2022-11-23T01:16:15;14.55;;;2.30;;
23078;SDS011;11707;50.830;4.364;2022-11-23T01:18:46;13.95;;;2.97;;
23078;SDS011;11707;50.830;4.364;2022-11-23T01:21:12;11.25;;;2.25;;
23078;SDS011;11707;50.830;4.364;2022-11-23T01:23:37;12.73;;;2.22;;
23078;SDS011;11707;50.830;4.364;2022-11-23T01:26:07;14.55;;;3.10;;
23078;SDS011;11707;50.830;4.364;2022-11-23T01:28:34;12.30;;;1.63;;
23078;SDS011;11707;50.830;4.364;2022-11-23T01:31:07;9.27;;;2.38;;
23078;SDS011;11707;50.830;4.364;2022-11-23T01:33:35;15.45;;;3.00;;
23078;SDS011;11707;50.830;4.364;2022-11-23T01:36:07;11.90;;;2.35;;
23078;SDS011;11707;50.830;4.364;2022-11-23T01:38:39;15.48;;;2.95;;
23078;SDS011;11707;50.830;4.364;2022-11-23T01:41:07;12.75;;;2.35;;
23078;SDS011;11707;50.830;4.364;2022-11-23T01:43:35;14.00;;;2.38;;
23078;SDS011;11707;50.830;4.364;2022-11-23T01:46:01;15.07;;;2.40;;
23078;SDS011;11707;50.830;4.364;2022-11-23T01:48:33;13.20;;;2.50;;
23078;SDS011;11707;50.830;4.364;2022-11-23T01:51:28;8.82;;;2.03;;
23078;SDS011;11707;50.830;4.364;2022-11-23T01:53:59;14.40;;;2.45;;
23078;SDS011;11707;50.830;4.364;2022-11-23T01:56:29;14.48;;;3.05;;
23078;SDS011;11707;50.830;4.364;2022-11-23T01:59:03;7.50;;;2.03;;
23078;SDS011;11707;50.830;4.364;2022-11-23T02:01:33;10.30;;;2.22;;
23078;SDS011;11707;50.830;4.364;2022-11-23T02:04:00;10.32;;;2.08;;
23078;SDS011;11707;50.830;4.364;2022-11-23T02:06:26;13.10;;;2.90;;
23078;SDS011;11707;50.830;4.364;2022-11-23T02:08:54;11.60;;;2.40;;
23078;SDS011;11707;50.830;4.364;2022-11-23T02:11:20;15.23;;;2.72;;
23078;SDS011;11707;50.830;4.364;2022-11-23T02:13:46;12.93;;;2.50;;
23078;SDS011;11707;50.830;4.364;2022-11-23T02:16:14;9.65;;;2.33;;
23078;SDS011;11707;50.830;4.364;2022-11-23T02:18:42;14.32;;;2.42;;
23078;SDS011;11707;50.830;4.364;2022-11-23T02:21:11;11.20;;;2.85;;
23078;SDS011;11707;50.830;4.364;2022-11-23T02:26:22;15.70;;;3.20;;
23078;SDS011;11707;50.830;4.364;2022-11-23T02:29:00;12.43;;;2.40;;
23078;SDS011;11707;50.830;4.364;2022-11-23T02:31:31;14.07;;;2.45;;
23078;SDS011;11707;50.830;4.364;2022-11-23T02:33:57;14.27;;;2.95;;
23078;SDS011;11707;50.830;4.364;2022-11-23T02:39:07;13.65;;;3.50;;
23078;SDS011;11707;50.830;4.364;2022-11-23T02:41:49;13.80;;;4.15;;
23078;SDS011;11707;50.830;4.364;2022-11-23T02:47:00;15.63;;;3.80;;
23078;SDS011;11707;50.830;4.364;2022-11-23T02:49:26;23.00;;;4.25;;
23078;SDS011;11707;50.830;4.364;2022-11-23T02:51:52;20.73;;;4.57;;
23078;SDS011;11707;50.830;4.364;2022-11-23T02:54:18;17.55;;;4.13;;
23078;SDS011;11707;50.830;4.364;2022-11-23T02:56:44;18.40;;;3.75;;
23078;SDS011;11707;50.830;4.364;2022-11-23T02:59:09;19.98;;;4.18;;
23078;SDS011;11707;50.830;4.364;2022-11-23T03:01:35;15.77;;;3.75;;
23078;SDS011;11707;50.830;4.364;2022-11-23T03:04:03;17.27;;;4.55;;
23078;SDS011;11707;50.830;4.364;2022-11-23T03:06:29;12.65;;;3.95;;
23078;SDS011;11707;50.830;4.364;2022-11-23T03:08:55;21.10;;;2.75;;
23078;SDS011;11707;50.830;4.364;2022-11-23T03:11:21;17.48;;;2.97;;
23078;SDS011;11707;50.830;4.364;2022-11-23T03:13:46;12.85;;;3.10;;
23078;SDS011;11707;50.830;4.364;2022-11-23T03:16:12;15.60;;;2.97;;
23078;SDS011;11707;50.830;4.364;2022-11-23T03:18:38;12.25;;;3.05;;
23078;SDS011;11707;50.830;4.364;2022-11-23T03:21:04;15.48;;;3.13;;
23078;SDS011;11707;50.830;4.364;2022-11-23T03:23:32;16.17;;;2.30;;
23078;SDS011;11707;50.830;4.364;2022-11-23T03:25:59;16.27;;;3.25;;
23078;SDS011;11707;50.830;4.364;2022-11-23T03:28:25;19.50;;;3.00;;
23078;SDS011;11707;50.830;4.364;2022-11-23T03:30:51;12.05;;;2.85;;
23078;SDS011;11707;50.830;4.364;2022-11-23T03:33:17;14.13;;;2.95;;
23078;SDS011;11707;50.830;4.364;2022-11-23T03:35:43;16.23;;;2.63;;
23078;SDS011;11707;50.830;4.364;2022-11-23T03:38:09;17.15;;;3.25;;
23078;SDS011;11707;50.830;4.364;2022-11-23T03:40:35;16.85;;;2.67;;
23078;SDS011;11707;50.830;4.364;2022-11-23T03:43:01;13.32;;;2.67;;
23078;SDS011;11707;50.830;4.364;2022-11-23T03:45:27;10.73;;;2.35;;
23078;SDS011;11707;50.830;4.364;2022-11-23T03:47:53;22.65;;;3.00;;
23078;SDS011;11707;50.830;4.364;2022-11-23T03:50:19;14.02;;;3.80;;
23078;SDS011;11707;50.830;4.364;2022-11-23T03:52:44;14.60;;;2.30;;
23078;SDS011;11707;50.830;4.364;2022-11-23T03:55:12;15.20;;;3.55;;
23078;SDS011;11707;50.830;4.364;2022-11-23T03:57:38;15.68;;;3.10;;
23078;SDS011;11707;50.830;4.364;2022-11-23T04:00:04;20.67;;;3.35;;
23078;SDS011;11707;50.830;4.364;2022-11-23T04:02:30;11.18;;;2.65;;
23078;SDS011;11707;50.830;4.364;2022-11-23T04:04:56;12.07;;;2.80;;
23078;SDS011;11707;50.830;4.364;2022-11-23T04:07:22;10.57;;;3.05;;
23078;SDS011;11707;50.830;4.364;2022-11-23T04:09:47;13.55;;;3.15;;
23078;SDS011;11707;50.830;4.364;2022-11-23T04:12:13;11.35;;;2.50;;
23078;SDS011;11707;50.830;4.364;2022-11-23T04:14:39;13.23;;;2.95;;
23078;SDS011;11707;50.830;4.364;2022-11-23T04:17:04;15.70;;;3.17;;
23078;SDS011;11707;50.830;4.364;2022-11-23T04:19:30;13.32;;;3.35;;
23078;SDS011;11707;50.830;4.364;2022-11-23T04:21:56;19.77;;;2.88;;
23078;SDS011;11707;50.830;4.364;2022-11-23T04:24:21;18.13;;;3.10;;
23078;SDS011;11707;50.830;4.364;2022-11-23T04:26:47;21.85;;;2.95;;
23078;SDS011;11707;50.830;4.364;2022-11-23T04:29:13;17.88;;;2.55;;
23078;SDS011;11707;50.830;4.364;2022-11-23T04:31:39;11.88;;;2.85;;
23078;SDS011;11707;50.830;4.364;2022-11-23T04:34:04;16.23;;;3.58;;
23078;SDS011;11707;50.830;4.364;2022-11-23T04:36:30;19.75;;;5.13;;
23078;SDS011;11707;50.830;4.364;2022-11-23T04:38:57;17.33;;;2.83;;
23078;SDS011;11707;50.830;4.364;2022-11-23T04:41:22;20.63;;;3.40;;
23078;SDS011;11707;50.830;4.364;2022-11-23T04:43:48;25.52;;;3.05;;
23078;SDS011;11707;50.830;4.364;2022-11-23T04:46:16;19.25;;;3.10;;
23078;SDS011;11707;50.830;4.364;2022-11-23T04:48:42;18.70;;;3.38;;
23078;SDS011;11707;50.830;4.364;2022-11-23T04:51:08;18.92;;;4.55;;
23078;SDS011;11707;50.830;4.364;2022-11-23T04:53:34;12.43;;;2.72;;
23078;SDS011;11707;50.830;4.364;2022-11-23T04:56:00;12.85;;;2.80;;
23078;SDS011;11707;50.830;4.364;2022-11-23T04:58:26;15.75;;;2.90;;
23078;SDS011;11707;50.830;4.364;2022-11-23T05:00:52;21.17;;;3.40;;
23078;SDS011;11707;50.830;4.364;2022-11-23T05:03:17;20.02;;;3.25;;
23078;SDS011;11707;50.830;4.364;2022-11-23T05:05:43;13.45;;;3.30;;
23078;SDS011;11707;50.830;4.364;2022-11-23T05:08:09;16.00;;;2.28;;
23078;SDS011;11707;50.830;4.364;2022-11-23T05:10:35;19.08;;;3.72;;
23078;SDS011;11707;50.830;4.364;2022-11-23T05:13:01;13.25;;;3.17;;
23078;SDS011;11707;50.830;4.364;2022-11-23T05:15:27;13.40;;;2.42;;
23078;SDS011;11707;50.830;4.364;2022-11-23T05:17:53;20.52;;;3.15;;
23078;SDS011;11707;50.830;4.364;2022-11-23T05:20:28;14.15;;;2.95;;
23078;SDS011;11707;50.830;4.364;2022-11-23T05:22:54;18.50;;;2.95;;
23078;SDS011;11707;50.830;4.364;2022-11-23T05:25:20;17.80;;;3.20;;
23078;SDS011;11707;50.830;4.364;2022-11-23T05:27:46;14.95;;;3.10;;
23078;SDS011;11707;50.830;4.364;2022-11-23T05:30:12;18.45;;;3.10;;
23078;SDS011;11707;50.830;4.364;2022-11-23T05:32:38;16.67;;;2.33;;
23078;SDS011;11707;50.830;4.364;2022-11-23T05:35:04;16.58;;;3.00;;
23078;SDS011;11707;50.830;4.364;2022-11-23T05:37:30;10.13;;;2.03;;
23078;SDS011;11707;50.830;4.364;2022-11-23T05:39:56;12.98;;;3.08;;
23078;SDS011;11707;50.830;4.364;2022-11-23T05:42:21;19.35;;;3.28;;
23078;SDS011;11707;50.830;4.364;2022-11-23T05:44:47;10.32;;;2.30;;
23078;SDS011;11707;50.830;4.364;2022-11-23T05:47:13;18.90;;;2.90;;
23078;SDS011;11707;50.830;4.364;2022-11-23T05:49:38;16.67;;;2.67;;
23078;SDS011;11707;50.830;4.364;2022-11-23T05:52:04;12.55;;;3.03;;
23078;SDS011;11707;50.830;4.364;2022-11-23T05:54:30;12.00;;;2.28;;
23078;SDS011;11707;50.830;4.364;2022-11-23T05:56:55;17.50;;;2.85;;
23078;SDS011;11707;50.830;4.364;2022-11-23T05:59:21;17.13;;;3.25;;
23078;SDS011;11707;50.830;4.364;2022-11-23T06:01:47;35.40;;;14.63;;
23078;SDS011;11707;50.830;4.364;2022-11-23T06:04:13;22.33;;;2.83;;
23078;SDS011;11707;50.830;4.364;2022-11-23T06:06:38;11.50;;;2.47;;
23078;SDS011;11707;50.830;4.364;2022-11-23T06:09:04;18.67;;;2.50;;
23078;SDS011;11707;50.830;4.364;2022-11-23T06:11:30;12.02;;;2.92;;
23078;SDS011;11707;50.830;4.364;2022-11-23T06:13:56;15.60;;;2.72;;
23078;SDS011;11707;50.830;4.364;2022-11-23T06:16:22;13.02;;;2.40;;
23078;SDS011;11707;50.830;4.364;2022-11-23T06:18:48;12.48;;;3.22;;
23078;SDS011;11707;50.830;4.364;2022-11-23T06:21:14;13.68;;;3.08;;
23078;SDS011;11707;50.830;4.364;2022-11-23T06:23:39;12.05;;;2.28;;
23078;SDS011;11707;50.830;4.364;2022-11-23T06:26:05;17.98;;;2.58;;
23078;SDS011;11707;50.830;4.364;2022-11-23T06:28:31;11.18;;;2.47;;
23078;SDS011;11707;50.830;4.364;2022-11-23T06:31:00;13.98;;;2.75;;
23078;SDS011;11707;50.830;4.364;2022-11-23T06:33:26;11.60;;;2.45;;
23078;SDS011;11707;50.830;4.364;2022-11-23T06:38:18;19.67;;;3.05;;
23078;SDS011;11707;50.830;4.364;2022-11-23T06:40:44;19.50;;;2.70;;
23078;SDS011;11707;50.830;4.364;2022-11-23T06:43:09;15.45;;;3.35;;
23078;SDS011;11707;50.830;4.364;2022-11-23T06:45:35;6.57;;;1.95;;
23078;SDS011;11707;50.830;4.364;2022-11-23T06:48:01;12.15;;;2.70;;
23078;SDS011;11707;50.830;4.364;2022-11-23T06:50:27;14.52;;;3.40;;
23078;SDS011;11707;50.830;4.364;2022-11-23T06:52:55;15.00;;;2.70;;
23078;SDS011;11707;50.830;4.364;2022-11-23T06:55:22;15.68;;;2.72;;
23078;SDS011;11707;50.830;4.364;2022-11-23T06:57:49;13.40;;;2.80;;
23078;SDS011;11707;50.830;4.364;2022-11-23T07:00:15;12.30;;;2.83;;
23078;SDS011;11707;50.830;4.364;2022-11-23T07:02:42;12.82;;;3.10;;
23078;SDS011;11707;50.830;4.364;2022-11-23T07:05:08;14.88;;;3.47;;
23078;SDS011;11707;50.830;4.364;2022-11-23T07:07:33;17.65;;;2.80;;
23078;SDS011;11707;50.830;4.364;2022-11-23T07:09:59;11.27;;;3.00;;
23078;SDS011;11707;50.830;4.364;2022-11-23T07:12:25;20.45;;;3.70;;
23078;SDS011;11707;50.830;4.364;2022-11-23T07:14:51;17.35;;;3.58;;
23078;SDS011;11707;50.830;4.364;2022-11-23T07:17:17;18.40;;;3.35;;
23078;SDS011;11707;50.830;4.364;2022-11-23T07:19:42;11.60;;;2.80;;
23078;SDS011;11707;50.830;4.364;2022-11-23T07:22:08;18.58;;;3.38;;
23078;SDS011;11707;50.830;4.364;2022-11-23T07:24:34;14.07;;;3.50;;
23078;SDS011;11707;50.830;4.364;2022-11-23T07:27:00;16.58;;;3.75;;
23078;SDS011;11707;50.830;4.364;2022-11-23T07:29:25;14.50;;;2.85;;
23078;SDS011;11707;50.830;4.364;2022-11-23T07:31:51;13.02;;;2.88;;
23078;SDS011;11707;50.830;4.364;2022-11-23T07:34:17;17.63;;;3.90;;
23078;SDS011;11707;50.830;4.364;2022-11-23T07:36:43;28.23;;;3.92;;
23078;SDS011;11707;50.830;4.364;2022-11-23T07:39:09;12.73;;;2.75;;
23078;SDS011;11707;50.830;4.364;2022-11-23T07:41:35;18.52;;;3.75;;
23078;SDS011;11707;50.830;4.364;2022-11-23T07:44:01;14.13;;;3.40;;
23078;SDS011;11707;50.830;4.364;2022-11-23T07:46:27;25.45;;;5.78;;
23078;SDS011;11707;50.830;4.364;2022-11-23T07:48:52;11.55;;;3.85;;
23078;SDS011;11707;50.830;4.364;2022-11-23T07:51:23;18.45;;;3.60;;
23078;SDS011;11707;50.830;4.364;2022-11-23T07:53:49;17.08;;;4.57;;
23078;SDS011;11707;50.830;4.364;2022-11-23T07:56:14;10.38;;;3.58;;
23078;SDS011;11707;50.830;4.364;2022-11-23T07:58:40;10.35;;;3.25;;
23078;SDS011;11707;50.830;4.364;2022-11-23T08:01:06;11.65;;;3.05;;
23078;SDS011;11707;50.830;4.364;2022-11-23T08:03:31;11.77;;;3.72;;
23078;SDS011;11707;50.830;4.364;2022-11-23T08:05:57;11.85;;;4.90;;
23078;SDS011;11707;50.830;4.364;2022-11-23T08:08:23;18.08;;;4.15;;
23078;SDS011;11707;50.830;4.364;2022-11-23T08:10:49;21.92;;;4.43;;
23078;SDS011;11707;50.830;4.364;2022-11-23T08:13:15;19.50;;;3.83;;
23078;SDS011;11707;50.830;4.364;2022-11-23T08:15:40;12.30;;;3.35;;
23078;SDS011;11707;50.830;4.364;2022-11-23T08:18:06;12.70;;;3.53;;
23078;SDS011;11707;50.830;4.364;2022-11-23T08:20:31;15.95;;;3.35;;
23078;SDS011;11707;50.830;4.364;2022-11-23T08:22:57;10.45;;;3.72;;
23078;SDS011;11707;50.830;4.364;2022-11-23T08:25:24;17.88;;;4.55;;
23078;SDS011;11707;50.830;4.364;2022-11-23T08:27:54;14.38;;;3.95;;
23078;SDS011;11707;50.830;4.364;2022-11-23T08:30:25;10.80;;;2.67;;
23078;SDS011;11707;50.830;4.364;2022-11-23T08:32:51;9.57;;;2.55;;
23078;SDS011;11707;50.830;4.364;2022-11-23T08:35:17;12.07;;;2.90;;
23078;SDS011;11707;50.830;4.364;2022-11-23T08:37:43;11.70;;;2.90;;
23078;SDS011;11707;50.830;4.364;2022-11-23T08:40:09;12.75;;;2.53;;
23078;SDS011;11707;50.830;4.364;2022-11-23T08:42:35;13.35;;;2.92;;
23078;SDS011;11707;50.830;4.364;2022-11-23T08:45:00;11.65;;;2.97;;
23078;SDS011;11707;50.830;4.364;2022-11-23T08:47:28;14.32;;;2.97;;
23078;SDS011;11707;50.830;4.364;2022-11-23T08:49:55;12.55;;;3.15;;
23078;SDS011;11707;50.830;4.364;2022-11-23T08:52:20;13.45;;;3.13;;
23078;SDS011;11707;50.830;4.364;2022-11-23T08:54:46;14.43;;;3.20;;
23078;SDS011;11707;50.830;4.364;2022-11-23T08:57:12;14.68;;;3.58;;
23078;SDS011;11707;50.830;4.364;2022-11-23T08:59:37;9.80;;;2.35;;
23078;SDS011;11707;50.830;4.364;2022-11-23T09:02:03;8.40;;;2.45;;
23078;SDS011;11707;50.830;4.364;2022-11-23T09:04:29;7.72;;;2.80;;
23078;SDS011;11707;50.830;4.364;2022-11-23T09:06:55;17.02;;;3.38;;
23078;SDS011;11707;50.830;4.364;2022-11-23T09:09:21;9.07;;;3.40;;
23078;SDS011;11707;50.830;4.364;2022-11-23T09:11:46;10.15;;;3.13;;
23078;SDS011;11707;50.830;4.364;2022-11-23T09:14:12;16.58;;;3.72;;
23078;SDS011;11707;50.830;4.364;2022-11-23T09:16:38;11.07;;;3.15;;
23078;SDS011;11707;50.830;4.364;2022-11-23T09:19:04;15.15;;;3.50;;
23078;SDS011;11707;50.830;4.364;2022-11-23T09:21:32;11.55;;;2.90;;
23078;SDS011;11707;50.830;4.364;2022-11-23T09:24:00;8.80;;;2.78;;
23078;SDS011;11707;50.830;4.364;2022-11-23T09:26:26;8.45;;;2.30;;
23078;SDS011;11707;50.830;4.364;2022-11-23T09:28:52;9.38;;;2.47;;
23078;SDS011;11707;50.830;4.364;2022-11-23T09:31:17;9.50;;;3.00;;
23078;SDS011;11707;50.830;4.364;2022-11-23T09:33:43;9.23;;;2.10;;
23078;SDS011;11707;50.830;4.364;2022-11-23T09:36:09;7.80;;;2.95;;
23078;SDS011;11707;50.830;4.364;2022-11-23T09:38:35;7.25;;;3.33;;
23078;SDS011;11707;50.830;4.364;2022-11-23T09:44:07;11.18;;;3.22;;
23078;SDS011;11707;50.830;4.364;2022-11-23T09:46:41;11.52;;;3.08;;
23078;SDS011;11707;50.830;4.364;2022-11-23T09:49:13;8.80;;;2.45;;
23078;SDS011;11707;50.830;4.364;2022-11-23T09:51:44;10.10;;;2.88;;
23078;SDS011;11707;50.830;4.364;2022-11-23T09:54:30;10.27;;;3.17;;
23078;SDS011;11707;50.830;4.364;2022-11-23T09:56:59;10.93;;;2.50;;
23078;SDS011;11707;50.830;4.364;2022-11-23T10:01:50;9.65;;;2.88;;
23078;SDS011;11707;50.830;4.364;2022-11-23T10:04:16;7.57;;;1.77;;
23078;SDS011;11707;50.830;4.364;2022-11-23T10:06:44;9.55;;;2.65;;
23078;SDS011;11707;50.830;4.364;2022-11-23T10:17:37;9.63;;;2.20;;
23078;SDS011;11707;50.830;4.364;2022-11-23T10:23:11;6.00;;;2.17;;
23078;SDS011;11707;50.830;4.364;2022-11-23T10:25:50;4.77;;;1.90;;
23078;SDS011;11707;50.830;4.364;2022-11-23T10:28:18;7.70;;;1.80;;
23078;SDS011;11707;50.830;4.364;2022-11-23T10:30:54;6.22;;;2.10;;
23078;SDS011;11707;50.830;4.364;2022-11-23T10:33:36;6.32;;;1.88;;
23078;SDS011;11707;50.830;4.364;2022-11-23T10:36:22;4.95;;;1.88;;
23078;SDS011;11707;50.830;4.364;2022-11-23T10:38:53;2.72;;;1.50;;
23078;SDS011;11707;50.830;4.364;2022-11-23T10:41:24;7.75;;;2.45;;
23078;SDS011;11707;50.830;4.364;2022-11-23T10:46:43;8.55;;;2.78;;
23078;SDS011;11707;50.830;4.364;2022-11-23T10:49:14;4.85;;;1.75;;
23078;SDS011;11707;50.830;4.364;2022-11-23T10:51:44;12.13;;;1.77;;
23078;SDS011;11707;50.830;4.364;2022-11-23T10:54:25;9.55;;;2.72;;
23078;SDS011;11707;50.830;4.364;2022-11-23T10:56:54;8.68;;;1.95;;
23078;SDS011;11707;50.830;4.364;2022-11-23T10:59:25;15.95;;;3.13;;
23078;SDS011;11707;50.830;4.364;2022-11-23T11:04:37;8.60;;;1.98;;
23078;SDS011;11707;50.830;4.364;2022-11-23T11:07:15;5.72;;;1.88;;
23078;SDS011;11707;50.830;4.364;2022-11-23T11:09:54;12.65;;;2.15;;
23078;SDS011;11707;50.830;4.364;2022-11-23T11:12:25;8.88;;;2.20;;
23078;SDS011;11707;50.830;4.364;2022-11-23T11:14:59;12.80;;;2.45;;
23078;SDS011;11707;50.830;4.364;2022-11-23T11:17:28;6.63;;;1.65;;
23078;SDS011;11707;50.830;4.364;2022-11-23T11:19:56;5.35;;;1.50;;
23078;SDS011;11707;50.830;4.364;2022-11-23T11:25:02;7.38;;;2.65;;
23078;SDS011;11707;50.830;4.364;2022-11-23T11:27:29;10.73;;;2.80;;
23078;SDS011;11707;50.830;4.364;2022-11-23T11:29:57;9.80;;;2.40;;
23078;SDS011;11707;50.830;4.364;2022-11-23T11:32:39;10.52;;;1.80;;
23078;SDS011;11707;50.830;4.364;2022-11-23T11:37:49;5.45;;;1.50;;
23078;SDS011;11707;50.830;4.364;2022-11-23T11:43:22;11.40;;;1.83;;
23078;SDS011;11707;50.830;4.364;2022-11-23T11:46:01;7.93;;;1.55;;
23078;SDS011;11707;50.830;4.364;2022-11-23T11:48:34;5.93;;;1.65;;
23078;SDS011;11707;50.830;4.364;2022-11-23T11:51:22;10.50;;;2.15;;
23078;SDS011;11707;50.830;4.364;2022-11-23T12:04:39;7.13;;;1.92;;
23078;SDS011;11707;50.830;4.364;2022-11-23T12:09:43;3.90;;;1.50;;
23078;SDS011;11707;50.830;4.364;2022-11-23T12:12:15;9.82;;;1.52;;
23078;SDS011;11707;50.830;4.364;2022-11-23T12:14:42;3.50;;;1.48;;
23078;SDS011;11707;50.830;4.364;2022-11-23T12:22:54;8.10;;;1.05;;
23078;SDS011;11707;50.830;4.364;2022-11-23T12:25:43;4.30;;;1.15;;
23078;SDS011;11707;50.830;4.364;2022-11-23T12:39:30;5.97;;;1.55;;
23078;SDS011;11707;50.830;4.364;2022-11-23T12:42:10;3.47;;;1.08;;
23078;SDS011;11707;50.830;4.364;2022-11-23T12:47:59;7.38;;;1.80;;
23078;SDS011;11707;50.830;4.364;2022-11-23T12:50:44;6.18;;;1.92;;
23078;SDS011;11707;50.830;4.364;2022-11-23T12:56:08;8.40;;;1.60;;
23078;SDS011;11707;50.830;4.364;2022-11-23T12:58:37;5.70;;;2.00;;
23078;SDS011;11707;50.830;4.364;2022-11-23T13:01:48;6.07;;;1.80;;
23078;SDS011;11707;50.830;4.364;2022-11-23T13:14:38;3.40;;;1.35;;
23078;SDS011;11707;50.830;4.364;2022-11-23T13:17:17;4.50;;;1.42;;
23078;SDS011;11707;50.830;4.364;2022-11-23T13:22:50;5.93;;;1.77;;
23078;SDS011;11707;50.830;4.364;2022-11-23T13:25:21;6.05;;;2.08;;
23078;SDS011;11707;50.830;4.364;2022-11-23T13:30:35;5.95;;;1.75;;
23078;SDS011;11707;50.830;4.364;2022-11-23T13:33:23;5.00;;;1.45;;
23078;SDS011;11707;50.830;4.364;2022-11-23T13:35:53;2.95;;;1.20;;
23078;SDS011;11707;50.830;4.364;2022-11-23T13:38:25;4.15;;;1.55;;
23078;SDS011;11707;50.830;4.364;2022-11-23T13:40:52;6.60;;;2.60;;
23078;SDS011;11707;50.830;4.364;2022-11-23T13:43:28;2.33;;;1.02;;
23078;SDS011;11707;50.830;4.364;2022-11-23T13:48:44;4.80;;;1.52;;
23078;SDS011;11707;50.830;4.364;2022-11-23T13:51:11;2.33;;;1.30;;
23078;SDS011;11707;50.830;4.364;2022-11-23T13:53:37;4.30;;;1.60;;
23078;SDS011;11707;50.830;4.364;2022-11-23T13:56:16;4.95;;;1.15;;
23078;SDS011;11707;50.830;4.364;2022-11-23T14:04:32;3.83;;;1.38;;
23078;SDS011;11707;50.830;4.364;2022-11-23T14:07:19;2.53;;;0.73;;
23078;SDS011;11707;50.830;4.364;2022-11-23T14:15:21;4.13;;;1.60;;
23078;SDS011;11707;50.830;4.364;2022-11-23T14:28:31;3.58;;;1.83;;
23078;SDS011;11707;50.830;4.364;2022-11-23T14:34:27;4.53;;;1.55;;
23078;SDS011;11707;50.830;4.364;2022-11-23T14:42:52;3.63;;;1.55;;
23078;SDS011;11707;50.830;4.364;2022-11-23T14:45:20;2.97;;;1.52;;
23078;SDS011;11707;50.830;4.364;2022-11-23T14:47:48;4.78;;;1.63;;
23078;SDS011;11707;50.830;4.364;2022-11-23T14:50:21;3.50;;;1.85;;
23078;SDS011;11707;50.830;4.364;2022-11-23T14:52:49;3.38;;;1.70;;
23078;SDS011;11707;50.830;4.364;2022-11-23T14:55:18;4.82;;;1.70;;
23078;SDS011;11707;50.830;4.364;2022-11-23T14:57:47;3.95;;;1.60;;
23078;SDS011;11707;50.830;4.364;2022-11-23T15:03:08;6.05;;;2.42;;
23078;SDS011;11707;50.830;4.364;2022-11-23T15:05:39;7.38;;;2.35;;
23078;SDS011;11707;50.830;4.364;2022-11-23T15:10:42;5.22;;;2.17;;
23078;SDS011;11707;50.830;4.364;2022-11-23T15:13:16;4.38;;;1.55;;
23078;SDS011;11707;50.830;4.364;2022-11-23T15:15:45;5.55;;;1.60;;
23078;SDS011;11707;50.830;4.364;2022-11-23T15:18:11;7.28;;;2.80;;
23078;SDS011;11707;50.830;4.364;2022-11-23T15:20:41;7.47;;;2.20;;
23078;SDS011;11707;50.830;4.364;2022-11-23T15:23:30;5.80;;;1.88;;
23078;SDS011;11707;50.830;4.364;2022-11-23T15:25:59;5.22;;;1.75;;
23078;SDS011;11707;50.830;4.364;2022-11-23T15:28:29;5.43;;;1.70;;
23078;SDS011;11707;50.830;4.364;2022-11-23T15:30:58;2.70;;;1.92;;
23078;SDS011;11707;50.830;4.364;2022-11-23T15:33:24;5.53;;;2.20;;
23078;SDS011;11707;50.830;4.364;2022-11-23T15:35:50;5.55;;;1.73;;
23078;SDS011;11707;50.830;4.364;2022-11-23T15:38:17;7.18;;;2.20;;
23078;SDS011;11707;50.830;4.364;2022-11-23T15:40:44;5.97;;;2.20;;
23078;SDS011;11707;50.830;4.364;2022-11-23T15:43:12;3.95;;;2.00;;
23078;SDS011;11707;50.830;4.364;2022-11-23T15:48:30;4.97;;;2.05;;
23078;SDS011;11707;50.830;4.364;2022-11-23T15:50:58;7.38;;;2.25;;
23078;SDS011;11707;50.830;4.364;2022-11-23T15:53:31;5.10;;;2.63;;
23078;SDS011;11707;50.830;4.364;2022-11-23T15:56:10;11.82;;;2.63;;
23078;SDS011;11707;50.830;4.364;2022-11-23T15:58:47;15.10;;;3.00;;
23078;SDS011;11707;50.830;4.364;2022-11-23T16:01:16;5.43;;;1.90;;
23078;SDS011;11707;50.830;4.364;2022-11-23T16:03:51;3.95;;;2.25;;
23078;SDS011;11707;50.830;4.364;2022-11-23T16:09:02;4.80;;;2.20;;
23078;SDS011;11707;50.830;4.364;2022-11-23T16:11:48;5.85;;;2.13;;
23078;SDS011;11707;50.830;4.364;2022-11-23T16:14:19;6.07;;;2.50;;
23078;SDS011;11707;50.830;4.364;2022-11-23T16:17:14;6.15;;;2.85;;
23078;SDS011;11707;50.830;4.364;2022-11-23T16:19:44;10.48;;;2.70;;
23078;SDS011;11707;50.830;4.364;2022-11-23T16:22:22;6.20;;;2.88;;
23078;SDS011;11707;50.830;4.364;2022-11-23T16:24:53;8.38;;;4.75;;
23078;SDS011;11707;50.830;4.364;2022-11-23T16:27:31;8.52;;;2.90;;
23078;SDS011;11707;50.830;4.364;2022-11-23T16:29:57;7.47;;;2.60;;
23078;SDS011;11707;50.830;4.364;2022-11-23T16:34:54;9.68;;;2.92;;
23078;SDS011;11707;50.830;4.364;2022-11-23T16:37:27;6.72;;;3.30;;
23078;SDS011;11707;50.830;4.364;2022-11-23T16:39:52;12.15;;;3.45;;
23078;SDS011;11707;50.830;4.364;2022-11-23T16:42:18;9.27;;;3.65;;
23078;SDS011;11707;50.830;4.364;2022-11-23T16:44:44;11.52;;;4.47;;
23078;SDS011;11707;50.830;4.364;2022-11-23T16:47:31;11.75;;;3.25;;
23078;SDS011;11707;50.830;4.364;2022-11-23T16:49:56;13.73;;;4.05;;
23078;SDS011;11707;50.830;4.364;2022-11-23T16:52:22;6.75;;;3.08;;
23078;SDS011;11707;50.830;4.364;2022-11-23T16:54:48;14.30;;;4.53;;
23078;SDS011;11707;50.830;4.364;2022-11-23T16:57:30;12.15;;;4.47;;
23078;SDS011;11707;50.830;4.364;2022-11-23T16:59:58;16.70;;;4.70;;
23078;SDS011;11707;50.830;4.364;2022-11-23T17:02:27;14.38;;;4.60;;
23078;SDS011;11707;50.830;4.364;2022-11-23T17:04:52;15.75;;;5.05;;
23078;SDS011;11707;50.830;4.364;2022-11-23T17:07:18;17.77;;;5.30;;